Terminal Aerodrome Forecast
Issued by NWS

Home | Current Version | Previous Version | Text Only | Print | Product List | Glossary Off
Versions: 1 2 3 4 5 6 7 8 9 10 11 12 13 14 15 16 17 18

000
FTUS43 KTOP 021738
TAFFOE
TAF
KFOE 021738Z 0218/0318 09006KT P6SM -SHRA VCTS BKN018CB
     FM022000 10006KT P6SM VCTS BKN022CB
     FM030000 VRB04KT P6SM BKN040
     FM030500 VRB02KT 4SM BR BKN015
     FM031400 01005KT P6SM BKN015=

USA.gov is the U.S. government's official web portal to all federal, state and local government web resources and services.